createdAt,value
2017-12-16T00:00:13.196Z,2.90
2017-12-16T00:02:41.635Z,2.80
2017-12-16T00:05:09.358Z,2.80
2017-12-16T00:07:37.015Z,2.90
2017-12-16T00:10:04.715Z,3.00
2017-12-16T00:12:32.431Z,2.90
2017-12-16T00:15:00.892Z,2.90
2017-12-16T00:17:29.367Z,3.10
2017-12-16T00:19:57.029Z,3.00
2017-12-16T00:22:24.739Z,3.10
2017-12-16T00:24:52.508Z,3.00
2017-12-16T00:27:20.250Z,3.10
2017-12-16T00:29:47.919Z,3.00
2017-12-16T00:32:15.635Z,3.20
2017-12-16T00:34:44.062Z,3.20
2017-12-16T00:37:11.791Z,3.20
2017-12-16T00:39:40.236Z,3.00
2017-12-16T00:42:08.004Z,3.00
2017-12-16T00:44:35.688Z,2.90
2017-12-16T00:47:03.400Z,3.00
2017-12-16T00:49:31.066Z,3.00
2017-12-16T00:51:58.783Z,3.00
2017-12-16T00:54:26.446Z,2.90
2017-12-16T00:56:54.166Z,2.90
2017-12-16T00:59:21.835Z,2.90
2017-12-16T01:01:50.315Z,3.00
2017-12-16T01:04:18.762Z,2.80
2017-12-16T01:06:46.483Z,2.80
2017-12-16T01:09:14.187Z,2.80
2017-12-16T01:11:41.896Z,2.80
2017-12-16T01:14:09.567Z,2.80
2017-12-16T01:16:37.234Z,2.80
2017-12-16T01:19:04.942Z,2.90
2017-12-16T01:21:32.642Z,3.10
2017-12-16T01:24:00.364Z,3.20
2017-12-16T01:26:28.036Z,3.10
2017-12-16T01:28:56.526Z,2.90
2017-12-16T01:31:24.187Z,2.90
2017-12-16T01:34:03.638Z,2.70
2017-12-16T01:36:43.342Z,2.70
2017-12-16T01:39:11.830Z,2.60
2017-12-16T01:41:40.331Z,2.50
2017-12-16T01:44:08.043Z,2.50
2017-12-16T01:46:35.716Z,2.30
2017-12-16T01:49:04.256Z,2.20
2017-12-16T01:51:31.955Z,2.20
2017-12-16T01:53:59.700Z,2.30
2017-12-16T01:56:27.405Z,2.40
2017-12-16T01:58:55.152Z,2.40
2017-12-16T02:01:23.634Z,2.50
2017-12-16T02:03:52.173Z,2.30
2017-12-16T02:06:19.890Z,2.30
2017-12-16T02:08:47.671Z,2.20
2017-12-16T02:11:15.391Z,2.20
2017-12-16T02:13:43.102Z,2.30
2017-12-16T02:16:10.854Z,2.50
2017-12-16T02:18:38.555Z,2.40
2017-12-16T02:21:06.338Z,2.30
2017-12-16T02:23:34.834Z,2.40
2017-12-16T02:26:02.603Z,2.40
2017-12-16T02:28:30.329Z,2.40
2017-12-16T02:30:58.861Z,2.50
2017-12-16T02:33:26.579Z,2.50
2017-12-16T02:35:55.110Z,2.40
2017-12-16T02:38:22.839Z,2.40
2017-12-16T02:40:50.599Z,2.30
2017-12-16T02:43:18.327Z,2.30
2017-12-16T02:45:46.870Z,2.20
2017-12-16T02:48:14.593Z,2.20
2017-12-16T02:50:42.368Z,2.20
2017-12-16T02:53:10.096Z,2.10
2017-12-16T02:55:38.619Z,2.00
2017-12-16T02:58:06.342Z,2.00
2017-12-16T03:00:34.875Z,1.70
2017-12-16T03:03:02.595Z,1.70
2017-12-16T03:05:30.369Z,1.70
2017-12-16T03:07:58.100Z,1.90
2017-12-16T03:10:26.587Z,1.90
2017-12-16T03:12:55.135Z,2.10
2017-12-16T03:15:22.868Z,2.10
2017-12-16T03:17:50.631Z,2.20
2017-12-16T03:20:18.355Z,2.10
2017-12-16T03:22:46.127Z,2.10
2017-12-16T03:25:13.868Z,2.10
2017-12-16T03:27:42.404Z,2.20
2017-12-16T03:30:10.128Z,2.20
2017-12-16T03:32:37.907Z,2.20
2017-12-16T03:35:05.639Z,2.10
2017-12-16T03:37:34.184Z,2.00
2017-12-16T03:40:01.911Z,2.00
2017-12-16T03:42:29.697Z,1.90
2017-12-16T03:44:57.427Z,1.90
2017-12-16T03:47:25.207Z,1.90
2017-12-16T03:49:52.931Z,1.90
2017-12-16T03:52:20.703Z,2.00
2017-12-16T03:54:48.435Z,2.00
2017-12-16T03:57:16.975Z,1.90
2017-12-16T03:59:44.711Z,1.90
2017-12-16T04:02:12.487Z,2.00
2017-12-16T04:04:40.210Z,1.80
2017-12-16T04:07:08.737Z,1.70
2017-12-16T04:09:36.466Z,1.70
2017-12-16T04:12:04.243Z,1.70
2017-12-16T04:14:31.958Z,1.60
2017-12-16T04:17:00.516Z,1.60
2017-12-16T04:19:29.030Z,1.60
2017-12-16T04:21:56.867Z,1.50
2017-12-16T04:24:24.606Z,1.70
2017-12-16T04:26:52.402Z,1.80
2017-12-16T04:29:20.872Z,1.80
2017-12-16T04:31:49.195Z,1.80
2017-12-16T04:34:16.914Z,1.80
2017-12-16T04:36:44.683Z,1.80
2017-12-16T04:39:13.195Z,1.90
2017-12-16T04:41:40.974Z,1.90
2017-12-16T04:44:08.702Z,1.90
2017-12-16T04:46:36.456Z,1.90
2017-12-16T04:49:04.951Z,1.90
2017-12-16T04:51:32.734Z,2.00
2017-12-16T04:54:00.458Z,1.90
2017-12-16T04:56:28.992Z,2.00
2017-12-16T04:58:56.767Z,2.00
2017-12-16T05:01:24.552Z,1.80
2017-12-16T05:03:53.051Z,1.90
2017-12-16T05:06:20.784Z,1.90
2017-12-16T05:08:48.563Z,2.00
2017-12-16T05:11:17.071Z,1.80
2017-12-16T05:13:44.859Z,1.80
2017-12-16T05:16:12.664Z,1.90
2017-12-16T05:18:40.455Z,1.90
2017-12-16T05:21:08.214Z,1.90
2017-12-16T05:23:35.982Z,1.80
2017-12-16T05:26:03.716Z,1.80
2017-12-16T05:28:31.483Z,1.70
2017-12-16T05:30:59.210Z,1.80
2017-12-16T05:33:26.946Z,2.00
2017-12-16T05:35:54.682Z,2.00
2017-12-16T05:38:22.479Z,2.00
2017-12-16T05:40:50.163Z,2.00
2017-12-16T05:43:18.699Z,1.80
2017-12-16T05:45:46.414Z,1.80
2017-12-16T05:48:14.943Z,1.50
2017-12-16T05:50:42.711Z,1.50
2017-12-16T05:53:10.492Z,1.60
2017-12-16T05:55:38.207Z,1.70
2017-12-16T05:58:05.990Z,1.60
2017-12-16T06:00:33.694Z,1.60
2017-12-16T06:03:02.223Z,2.00
2017-12-16T06:05:29.950Z,2.00
2017-12-16T06:07:57.741Z,2.10
2017-12-16T06:10:25.465Z,2.10
2017-12-16T06:12:53.995Z,1.90
2017-12-16T06:15:21.714Z,1.90
2017-12-16T06:17:49.482Z,1.80
2017-12-16T06:20:17.194Z,1.70
2017-12-16T06:22:44.975Z,1.80
2017-12-16T06:25:13.467Z,1.70
2017-12-16T06:27:42.002Z,1.70
2017-12-16T06:30:09.718Z,1.80
2017-12-16T06:32:37.487Z,1.80
2017-12-16T06:35:05.200Z,1.90
2017-12-16T06:37:32.971Z,1.90
2017-12-16T06:40:00.714Z,1.90
2017-12-16T06:42:28.486Z,1.90
2017-12-16T06:44:56.205Z,2.00
2017-12-16T06:47:23.975Z,2.20
2017-12-16T06:49:51.705Z,2.00
2017-12-16T06:52:20.235Z,1.90
2017-12-16T06:54:47.972Z,1.90
2017-12-16T06:57:15.744Z,1.90
2017-12-16T06:59:43.465Z,1.90
2017-12-16T07:02:12.032Z,1.90
2017-12-16T07:04:40.498Z,2.00
2017-12-16T07:07:08.275Z,2.00
2017-12-16T07:09:36.755Z,2.20
2017-12-16T07:12:05.300Z,1.90
2017-12-16T07:14:33.041Z,1.90
2017-12-16T07:17:00.783Z,2.00
2017-12-16T07:19:28.506Z,2.00
2017-12-16T07:21:56.278Z,1.90
2017-12-16T07:24:24.733Z,2.10
2017-12-16T07:26:52.420Z,2.10
2017-12-16T07:29:20.943Z,1.80
2017-12-16T07:31:48.680Z,1.80
2017-12-16T07:34:16.411Z,1.60
2017-12-16T07:36:44.869Z,1.70
2017-12-16T07:39:12.587Z,1.70
2017-12-16T07:41:40.269Z,1.60
2017-12-16T07:44:08.007Z,1.70
2017-12-16T07:46:35.667Z,1.80
2017-12-16T07:49:03.395Z,1.90
2017-12-16T07:51:31.855Z,1.70
2017-12-16T07:53:59.570Z,1.70
2017-12-16T07:56:27.243Z,1.90
2017-12-16T07:58:54.956Z,1.90
2017-12-16T08:01:23.456Z,1.80
2017-12-16T08:03:51.234Z,1.80
2017-12-16T08:06:18.943Z,1.80
2017-12-16T08:08:46.692Z,1.80
2017-12-16T08:11:14.375Z,1.80
2017-12-16T08:13:42.874Z,1.80
2017-12-16T08:16:10.532Z,1.80
2017-12-16T08:18:38.260Z,1.90
2017-12-16T08:21:05.926Z,2.30
2017-12-16T08:23:34.686Z,2.00
2017-12-16T08:26:03.149Z,2.20
2017-12-16T08:28:30.808Z,2.20
2017-12-16T08:30:58.575Z,2.10
2017-12-16T08:33:27.007Z,2.00
2017-12-16T08:35:54.751Z,2.00
2017-12-16T08:38:23.179Z,2.10
2017-12-16T08:40:50.889Z,2.00
2017-12-16T08:43:18.587Z,2.00
2017-12-16T08:45:47.220Z,2.00
2017-12-16T08:48:15.671Z,2.00
2017-12-16T08:50:43.375Z,2.00
2017-12-16T08:53:11.814Z,2.00
2017-12-16T08:55:39.526Z,2.00
2017-12-16T08:58:07.219Z,2.20
2017-12-16T09:00:34.992Z,2.30
2017-12-16T09:03:02.667Z,2.10
2017-12-16T09:05:30.399Z,2.30
2017-12-16T09:07:58.064Z,2.40
2017-12-16T09:10:25.776Z,2.40
2017-12-16T09:12:55.059Z,2.60
2017-12-16T09:15:23.551Z,2.50
2017-12-16T09:17:51.986Z,2.40
2017-12-16T09:20:19.702Z,2.40
2017-12-16T09:22:47.362Z,2.30
2017-12-16T09:25:15.063Z,2.30
2017-12-16T09:27:42.769Z,2.40
2017-12-16T09:30:11.227Z,2.40
2017-12-16T09:32:38.930Z,2.40
2017-12-16T09:35:06.613Z,2.50
2017-12-16T09:37:34.367Z,2.50
2017-12-16T09:40:02.045Z,2.60
2017-12-16T09:42:29.752Z,2.80
2017-12-16T09:44:58.233Z,2.90
2017-12-16T09:47:26.707Z,3.00
2017-12-16T09:49:55.174Z,3.00
2017-12-16T09:52:23.647Z,3.10
2017-12-16T09:54:51.315Z,3.00
2017-12-16T09:57:19.790Z,3.40
2017-12-16T09:59:47.683Z,3.30
2017-12-16T10:02:16.112Z,3.50
2017-12-16T10:04:44.167Z,3.60
2017-12-16T10:07:12.427Z,3.60
2017-12-16T10:09:40.396Z,3.80
2017-12-16T10:12:08.337Z,3.80
2017-12-16T10:14:36.593Z,3.70
2017-12-16T10:17:05.111Z,3.80
2017-12-16T10:19:33.498Z,3.70
2017-12-16T10:22:01.319Z,3.70
2017-12-16T10:24:29.710Z,3.70
2017-12-16T10:26:57.653Z,3.70
2017-12-16T10:29:26.585Z,3.50
2017-12-16T10:31:54.319Z,3.60
2017-12-16T10:34:22.091Z,3.50
2017-12-16T10:36:49.915Z,3.40
2017-12-16T10:39:18.485Z,3.40
2017-12-16T10:41:46.284Z,3.40
2017-12-16T10:44:14.190Z,3.40
2017-12-16T10:46:41.872Z,3.50
2017-12-16T10:49:09.617Z,3.40
2017-12-16T10:51:37.308Z,3.40
2017-12-16T10:54:05.812Z,3.30
2017-12-16T10:56:33.471Z,3.30
2017-12-16T10:59:01.201Z,3.30
2017-12-16T11:01:29.663Z,3.40
2017-12-16T11:03:57.375Z,3.40
2017-12-16T11:06:25.048Z,3.70
2017-12-16T11:08:52.749Z,3.80
2017-12-16T11:11:20.434Z,3.70
2017-12-16T11:13:48.922Z,3.70
2017-12-16T11:16:16.623Z,3.70
2017-12-16T11:18:44.404Z,3.90
2017-12-16T11:21:12.071Z,4.10
2017-12-16T11:23:39.823Z,4.20
2017-12-16T11:26:07.504Z,4.20
2017-12-16T11:28:36.010Z,4.30
2017-12-16T11:31:03.736Z,4.20
2017-12-16T11:33:32.228Z,4.20
2017-12-16T11:36:00.652Z,4.10
2017-12-16T11:38:28.375Z,4.10
2017-12-16T11:40:56.031Z,4.10
2017-12-16T11:43:23.736Z,4.10
2017-12-16T11:45:51.407Z,4.00
2017-12-16T11:48:19.107Z,4.30
2017-12-16T11:50:46.767Z,4.40
2017-12-16T11:53:15.235Z,4.40
2017-12-16T11:55:43.658Z,4.50
2017-12-16T11:58:11.371Z,4.50
2017-12-16T12:00:39.836Z,4.60
2017-12-16T12:03:07.604Z,4.60
2017-12-16T12:05:35.311Z,4.70
2017-12-16T12:08:03.391Z,4.60
2017-12-16T12:10:31.147Z,4.70
2017-12-16T12:12:58.824Z,4.70
2017-12-16T12:15:26.527Z,5.00
2017-12-16T12:17:54.959Z,5.40
2017-12-16T12:20:22.704Z,5.40
2017-12-16T12:22:50.370Z,5.10
2017-12-16T12:25:18.096Z,5.20
2017-12-16T12:27:45.750Z,5.10
2017-12-16T12:30:14.227Z,4.80
2017-12-16T12:32:42.659Z,4.70
2017-12-16T12:35:10.381Z,4.70
2017-12-16T12:37:38.045Z,4.70
2017-12-16T12:40:05.768Z,4.50
2017-12-16T12:42:33.432Z,4.40
2017-12-16T12:45:01.940Z,4.40
2017-12-16T12:47:29.608Z,4.40
2017-12-16T12:49:57.336Z,4.40
2017-12-16T12:52:25.765Z,4.40
2017-12-16T12:54:53.490Z,4.40
2017-12-16T12:57:21.159Z,4.50
2017-12-16T12:59:48.875Z,4.40
2017-12-16T13:02:16.544Z,4.40
2017-12-16T13:04:45.023Z,4.30
2017-12-16T13:07:12.689Z,4.30
2017-12-16T13:09:41.159Z,4.70
2017-12-16T13:12:08.831Z,4.70
2017-12-16T13:14:37.298Z,4.70
2017-12-16T13:17:04.973Z,4.70
2017-12-16T13:19:33.451Z,4.70
2017-12-16T13:22:02.136Z,4.80
2017-12-16T13:24:29.847Z,4.80
2017-12-16T13:26:57.523Z,4.80
2017-12-16T13:29:25.356Z,4.90
2017-12-16T13:31:53.543Z,4.80
2017-12-16T13:34:21.251Z,4.80
2017-12-16T13:36:48.919Z,4.90
2017-12-16T13:39:16.647Z,4.90
2017-12-16T13:41:44.316Z,4.90
2017-12-16T13:44:12.855Z,4.70
2017-12-16T13:46:40.534Z,4.70
2017-12-16T13:49:08.288Z,4.80
2017-12-16T13:51:35.961Z,4.90
2017-12-16T13:54:03.687Z,4.80
2017-12-16T13:56:31.347Z,4.80
2017-12-16T13:58:59.056Z,4.80
2017-12-16T14:01:27.491Z,4.60
2017-12-16T14:03:55.495Z,4.50
2017-12-16T14:06:23.153Z,4.60
2017-12-16T14:08:50.885Z,4.80
2017-12-16T14:11:18.559Z,4.70
2017-12-16T14:13:46.263Z,4.70
2017-12-16T14:16:13.942Z,4.70
2017-12-16T14:18:41.668Z,4.50
2017-12-16T14:21:10.141Z,4.60
2017-12-16T14:23:38.676Z,4.60
2017-12-16T14:26:06.386Z,4.60
2017-12-16T14:28:34.814Z,4.70
2017-12-16T14:31:02.524Z,4.70
2017-12-16T14:33:30.947Z,4.60
2017-12-16T14:35:58.644Z,4.60
2017-12-16T14:38:26.297Z,4.70
2017-12-16T14:40:54.065Z,4.60
2017-12-16T14:43:21.855Z,4.50
2017-12-16T14:45:49.591Z,4.50
2017-12-16T14:48:17.423Z,4.50
2017-12-16T14:50:45.134Z,4.50
2017-12-16T14:53:13.567Z,4.60
2017-12-16T14:55:41.272Z,4.60
2017-12-16T14:58:09.697Z,4.40
2017-12-16T15:00:37.405Z,4.40
2017-12-16T15:03:05.844Z,4.20
2017-12-16T15:05:33.546Z,4.20
2017-12-16T15:08:01.983Z,4.10
2017-12-16T15:10:29.695Z,4.10
2017-12-16T15:12:57.364Z,4.10
2017-12-16T15:15:25.089Z,4.00
2017-12-16T15:17:53.519Z,3.90
2017-12-16T15:20:21.223Z,3.90
2017-12-16T15:22:49.656Z,3.80
2017-12-16T15:25:17.371Z,3.80
2017-12-16T15:27:45.791Z,4.00
2017-12-16T15:30:13.552Z,4.00
2017-12-16T15:32:41.239Z,4.10
2017-12-16T15:35:08.938Z,3.90
2017-12-16T15:37:37.367Z,4.00
2017-12-16T15:40:05.156Z,3.90
2017-12-16T15:42:32.819Z,3.80
2017-12-16T15:45:01.298Z,3.50
2017-12-16T15:47:29.736Z,3.60
2017-12-16T15:49:57.459Z,3.60
2017-12-16T15:52:25.131Z,3.70
2017-12-16T15:54:52.852Z,3.80
2017-12-16T15:57:20.516Z,3.80
2017-12-16T15:59:48.995Z,3.90
2017-12-16T16:02:17.538Z,3.90
2017-12-16T16:04:45.327Z,3.90
2017-12-16T16:07:12.983Z,4.00
2017-12-16T16:09:40.785Z,4.00
2017-12-16T16:12:08.467Z,4.00
2017-12-16T16:14:36.168Z,4.00
2017-12-16T16:17:03.862Z,3.90
2017-12-16T16:19:31.583Z,3.90
2017-12-16T16:21:59.511Z,3.90
2017-12-16T16:24:27.229Z,3.90
2017-12-16T16:26:55.654Z,3.70
2017-12-16T16:29:23.374Z,3.80
2017-12-16T16:31:51.821Z,3.40
2017-12-16T16:34:19.546Z,3.40
2017-12-16T16:36:47.244Z,3.60
2017-12-16T16:39:14.960Z,3.70
2017-12-16T16:41:42.642Z,3.60
2017-12-16T16:44:10.384Z,3.40
2017-12-16T16:46:38.060Z,3.70
2017-12-16T16:49:06.667Z,3.80
2017-12-16T16:51:34.444Z,3.80
2017-12-16T16:54:02.920Z,3.80
2017-12-16T16:56:31.468Z,3.80
2017-12-16T16:58:59.146Z,3.80
2017-12-16T17:01:26.876Z,3.90
2017-12-16T17:03:54.562Z,3.70
2017-12-16T17:06:22.300Z,3.70
2017-12-16T17:08:50.767Z,3.70
2017-12-16T17:11:18.494Z,3.70
2017-12-16T17:13:46.940Z,3.70
2017-12-16T17:16:14.877Z,3.60
2017-12-16T17:18:43.227Z,3.80
2017-12-16T17:21:11.025Z,3.80
2017-12-16T17:23:39.001Z,3.80
2017-12-16T17:26:06.723Z,3.70
2017-12-16T17:28:34.453Z,3.70
2017-12-16T17:31:02.960Z,3.50
2017-12-16T17:33:30.643Z,3.50
2017-12-16T17:35:58.409Z,3.50
2017-12-16T17:38:26.075Z,3.60
2017-12-16T17:40:53.802Z,3.70
2017-12-16T17:43:21.596Z,3.80
2017-12-16T17:45:49.358Z,3.70
2017-12-16T17:48:17.039Z,3.70
2017-12-16T17:50:44.750Z,3.60
2017-12-16T17:53:12.416Z,3.50
2017-12-16T17:55:40.130Z,3.50
2017-12-16T17:58:07.792Z,3.50
2017-12-16T18:00:36.282Z,3.60
2017-12-16T18:03:04.736Z,3.70
2017-12-16T18:05:32.680Z,3.70
2017-12-16T18:08:00.431Z,3.90
2017-12-16T18:10:28.394Z,3.80
2017-12-16T18:12:56.969Z,3.90
2017-12-16T18:15:24.731Z,3.90
2017-12-16T18:17:52.410Z,3.90
2017-12-16T18:20:20.147Z,3.80
2017-12-16T18:22:47.855Z,3.80
2017-12-16T18:25:15.613Z,3.70
2017-12-16T18:27:43.294Z,3.80
2017-12-16T18:30:11.788Z,3.70
2017-12-16T18:32:39.483Z,3.70
2017-12-16T18:35:07.228Z,3.90
2017-12-16T18:37:35.227Z,3.80
2017-12-16T18:40:03.023Z,3.80
2017-12-16T18:42:31.561Z,3.80
2017-12-16T18:44:59.268Z,3.80
2017-12-16T18:47:27.731Z,3.70
2017-12-16T18:49:55.464Z,3.70
2017-12-16T18:52:23.204Z,3.70
2017-12-16T18:54:50.955Z,3.80
2017-12-16T18:57:18.656Z,3.70
2017-12-16T18:59:46.667Z,3.70
2017-12-16T19:02:14.368Z,3.60
2017-12-16T19:04:42.094Z,3.60
2017-12-16T19:07:09.807Z,3.60
2017-12-16T19:09:37.596Z,3.60
2017-12-16T19:12:05.360Z,3.60
2017-12-16T19:14:33.823Z,3.20
2017-12-16T19:17:02.319Z,3.00
2017-12-16T19:19:30.805Z,3.20
2017-12-16T19:21:58.531Z,3.20
2017-12-16T19:24:26.215Z,3.10
2017-12-16T19:26:54.707Z,3.30
2017-12-16T19:29:22.377Z,3.30
2017-12-16T19:31:50.105Z,3.40
2017-12-16T19:34:18.563Z,3.30
2017-12-16T19:36:46.274Z,3.30
2017-12-16T19:39:13.936Z,3.30
2017-12-16T19:41:41.652Z,3.20
2017-12-16T19:44:09.359Z,3.30
2017-12-16T19:46:37.086Z,3.30
2017-12-16T19:49:05.531Z,3.40
2017-12-16T19:51:33.311Z,3.40
2017-12-16T19:54:01.013Z,3.40
2017-12-16T19:56:28.751Z,3.40
2017-12-16T19:58:57.195Z,3.30
2017-12-16T20:01:24.911Z,3.20
2017-12-16T20:03:52.735Z,3.20
2017-12-16T20:06:22.613Z,3.20
2017-12-16T20:08:50.277Z,3.20
2017-12-16T20:11:18.029Z,3.60
2017-12-16T20:13:45.714Z,3.70
2017-12-16T20:16:13.597Z,3.60
2017-12-16T20:18:42.044Z,3.60
2017-12-16T20:21:09.913Z,3.60
2017-12-16T20:23:37.656Z,3.70
2017-12-16T20:26:05.448Z,3.60
2017-12-16T20:28:33.165Z,3.60
2017-12-16T20:31:00.904Z,3.50
2017-12-16T20:33:28.702Z,3.50
2017-12-16T20:35:56.390Z,3.40
2017-12-16T20:38:24.114Z,3.50
2017-12-16T20:40:51.791Z,3.50
2017-12-16T20:43:19.525Z,3.50
2017-12-16T20:45:47.255Z,3.40
2017-12-16T20:48:15.791Z,3.50
2017-12-16T20:50:43.470Z,3.50
2017-12-16T20:53:11.208Z,3.50
2017-12-16T20:55:38.915Z,3.50
2017-12-16T20:58:07.396Z,3.50
2017-12-16T21:00:35.892Z,3.50
2017-12-16T21:03:03.643Z,3.50
2017-12-16T21:05:32.086Z,3.50
2017-12-16T21:07:59.799Z,3.50
2017-12-16T21:10:27.458Z,3.40
2017-12-16T21:12:55.175Z,3.30
2017-12-16T21:15:22.846Z,3.20
2017-12-16T21:17:51.327Z,3.20
2017-12-16T21:20:19.752Z,3.30
2017-12-16T21:22:47.484Z,3.30
2017-12-16T21:25:15.139Z,3.50
2017-12-16T21:27:42.847Z,3.50
2017-12-16T21:30:10.504Z,3.50
2017-12-16T21:32:38.175Z,3.40
2017-12-16T21:35:05.878Z,3.40
2017-12-16T21:37:33.566Z,3.30
2017-12-16T21:40:01.281Z,3.30
2017-12-16T21:42:29.715Z,3.10
2017-12-16T21:44:57.444Z,3.10
2017-12-16T21:47:25.106Z,3.00
2017-12-16T21:49:52.811Z,3.00
2017-12-16T21:52:20.484Z,2.90
2017-12-16T21:54:48.175Z,2.90
2017-12-16T21:57:15.822Z,3.00
2017-12-16T21:59:44.329Z,3.00
2017-12-16T22:02:12.002Z,3.00
2017-12-16T22:04:39.713Z,2.90
2017-12-16T22:07:08.135Z,2.90
2017-12-16T22:09:35.889Z,2.90
2017-12-16T22:12:03.584Z,2.90
2017-12-16T22:14:31.303Z,2.90
2017-12-16T22:16:58.964Z,3.10
2017-12-16T22:19:26.759Z,3.20
2017-12-16T22:21:54.418Z,3.10
2017-12-16T22:24:22.119Z,3.20
2017-12-16T22:26:50.543Z,3.20
2017-12-16T22:29:18.242Z,3.10
2017-12-16T22:31:45.956Z,3.00
2017-12-16T22:34:13.623Z,2.90
2017-12-16T22:36:41.347Z,2.90
2017-12-16T22:39:09.035Z,2.90
2017-12-16T22:41:36.806Z,3.00
2017-12-16T22:44:06.543Z,3.00
2017-12-16T22:46:34.298Z,2.90
2017-12-16T22:49:02.041Z,2.90
2017-12-16T22:51:29.767Z,2.90
2017-12-16T22:53:57.451Z,2.90
2017-12-16T22:56:25.228Z,3.00
2017-12-16T22:58:53.036Z,3.10
2017-12-16T23:01:21.582Z,3.40
2017-12-16T23:03:49.531Z,3.30
2017-12-16T23:06:17.284Z,3.30
2017-12-16T23:08:45.003Z,3.30
2017-12-16T23:11:13.536Z,3.40
2017-12-16T23:13:41.251Z,3.40
2017-12-16T23:16:09.790Z,3.20
2017-12-16T23:18:37.520Z,3.20
2017-12-16T23:21:05.303Z,3.30
2017-12-16T23:23:33.031Z,3.40
2017-12-16T23:26:00.803Z,3.40
2017-12-16T23:28:28.534Z,3.40
2017-12-16T23:30:57.079Z,3.30
2017-12-16T23:33:24.807Z,3.30
2017-12-16T23:35:52.518Z,3.30
2017-12-16T23:38:20.283Z,3.30
2017-12-16T23:40:48.767Z,3.20
2017-12-16T23:43:17.304Z,3.30
2017-12-16T23:45:45.227Z,3.30
2017-12-16T23:48:12.995Z,3.30
2017-12-16T23:50:40.875Z,3.30
2017-12-16T23:53:08.610Z,3.20
2017-12-16T23:55:37.140Z,3.00
2017-12-16T23:58:05.022Z,3.00
